< < Back
Terminal Aerodrome Forecast


Current Version              Previous Versions:   1  2  3  4  5  6  7  8  9  

Terminal Aerodrome Forecast

815
FTUS42 KILM 300526
TAFFLO
TAF
KFLO 300526Z 3006/3106 00000KT P6SM SKC
     FM300700 VRB02KT 6SM BR BKN020
     FM301000 VRB02KT 4SM BR BKN012
     FM301400 12006KT P6SM SCT020 BKN035
     FM301800 15008KT P6SM VCSH SCT040 BKN250=



Latest METAR

630
SAUS70 KWBC 302200 RRA
MTRFLO
METAR KFLO 302153Z AUTO 16012KT 10SM CLR 31/16 A3009 RMK AO2 SLP187
T03060161 TSNO


USA.gov is the U.S. government's official web portal to all federal, state and local government web resources and services.